Time;durP1;ratioP1;P1;durP2;ratioP2;P2;SDS_P1;SDS_P2;PMS_P1;PMS_P2;Temp;Humidity;BMP_temperature;BMP_pressure;BME280_temperature;BME280_humidity;BME280_pressure;Samples;Min_cycle;Max_cycle;Signal;HPM_P1;HPM_P2
2021/10/27 06:45:55;;;;;;;3.72;1.35;;;21.40;50.80;;;;;;4912813;29;20043;-62
2021/10/27 06:47:42;;;;;;;2.97;1.33;;;21.40;50.70;;;;;;4917060;29;20047;-61
2021/10/27 06:50:08;;;;;;;3.17;1.40;;;21.50;50.90;;;;;;4912380;29;20035;-62
2021/10/27 06:52:34;;;;;;;3.83;1.52;;;21.40;50.80;;;;;;4906213;29;20055;-59
2021/10/27 06:54:59;;;;;;;2.95;1.63;;;21.50;50.80;;;;;;4902104;29;20592;-63
2021/10/27 06:57:27;;;;;;;3.95;1.63;;;21.50;50.80;;;;;;4908008;29;20028;-61
2021/10/27 06:59:58;;;;;;;5.65;1.63;;;21.50;50.90;;;;;;4909797;29;20024;-63
2021/10/27 07:16:06;;;;;;;3.88;1.50;;;21.60;50.90;;;;;;4913399;29;20447;-61
2021/10/27 07:18:32;;;;;;;2.95;1.20;;;21.60;50.80;;;;;;4905972;29;20041;-62
2021/10/27 07:20:57;;;;;;;2.30;1.00;;;21.60;50.80;;;;;;4905892;29;20039;-61
2021/10/27 07:23:23;;;;;;;4.65;1.55;;;21.70;50.80;;;;;;4909761;29;20039;-62
2021/10/27 07:25:56;;;;;;;3.38;1.38;;;21.70;51.00;;;;;;4911702;29;20044;-62
2021/10/27 07:28:25;;;;;;;2.78;1.20;;;21.60;51.00;;;;;;4914382;29;20029;-62
2021/10/27 07:30:51;;;;;;;4.18;1.27;;;21.60;51.00;;;;;;4914291;29;20387;-62
2021/10/27 07:33:16;;;;;;;3.20;1.23;;;21.60;51.00;;;;;;4908175;29;20502;-62
2021/10/27 07:40:51;;;;;;;3.13;1.20;;;21.70;51.00;;;;;;4905579;29;20465;-61
2021/10/27 07:43:19;;;;;;;2.25;1.02;;;21.70;51.00;;;;;;4900089;29;20067;-62
2021/10/27 07:45:45;;;;;;;3.92;1.30;;;21.70;51.00;;;;;;4903326;29;20036;-61
2021/10/27 07:48:11;;;;;;;2.58;1.25;;;21.70;51.10;;;;;;4911946;29;20524;-62
2021/10/27 07:50:38;;;;;;;4.40;1.33;;;21.70;51.00;;;;;;4902550;29;20059;-62
2021/10/27 07:53:07;;;;;;;2.22;1.10;;;21.70;51.10;;;;;;4906629;29;20032;-62
2021/10/27 07:55:34;;;;;;;3.35;1.30;;;21.70;51.10;;;;;;4907794;29;20028;-62
2021/10/27 07:58:01;;;;;;;1.83;1.00;;;21.70;51.10;;;;;;4905715;29;20480;-62
2021/10/27 08:00:29;;;;;;;2.58;1.20;;;21.70;51.20;;;;;;4907416;29;20089;-61
2021/10/27 08:03:00;;;;;;;3.83;1.30;;;21.70;51.20;;;;;;4903882;29;20454;-62
2021/10/27 08:05:26;;;;;;;2.17;1.17;;;21.80;51.10;;;;;;4910654;29;20104;-62
2021/10/27 08:07:52;;;;;;;4.30;1.35;;;21.80;51.10;;;;;;4915477;29;20024;-62
2021/10/27 08:10:19;;;;;;;2.38;1.00;;;21.80;51.20;;;;;;4907250;29;20047;-62
2021/10/27 08:12:46;;;;;;;4.50;1.25;;;21.80;51.20;;;;;;4913552;29;20075;-62
2021/10/27 08:15:12;;;;;;;3.03;1.20;;;21.80;51.10;;;;;;4905148;29;20036;-62
2021/10/27 08:17:40;;;;;;;4.03;1.30;;;21.80;51.10;;;;;;4919376;29;20055;-62
2021/10/27 08:20:07;;;;;;;3.10;1.20;;;21.80;51.10;;;;;;4907547;29;20059;-62
2021/10/27 08:22:34;;;;;;;3.08;1.40;;;21.80;51.10;;;;;;4911759;29;20112;-62
2021/10/27 08:25:07;;;;;;;2.20;1.10;;;21.80;51.10;;;;;;4904863;29;20035;-62
2021/10/27 08:27:36;;;;;;;2.87;1.13;;;21.80;51.10;;;;;;4911945;29;20093;-62
2021/10/27 08:30:07;;;;;;;3.90;1.25;;;21.80;51.30;;;;;;4913567;29;20058;-61
2021/10/27 08:32:56;;;;;;;2.33;0.98;;;21.80;51.20;;;;;;4911119;29;20028;-62
2021/10/27 08:35:22;;;;;;;4.35;1.08;;;21.80;51.20;;;;;;4898488;29;20111;-63
2021/10/27 08:37:49;;;;;;;2.05;0.90;;;21.80;51.20;;;;;;4911088;29;20126;-61
2021/10/27 08:40:17;;;;;;;3.35;1.27;;;21.90;51.20;;;;;;4909107;29;20043;-62
2021/10/27 08:42:44;;;;;;;3.92;1.10;;;21.90;51.20;;;;;;4911392;29;20119;-62
2021/10/27 08:45:10;;;;;;;2.40;0.95;;;21.80;51.20;;;;;;4913656;29;20059;-62
2021/10/27 08:47:41;;;;;;;2.35;1.17;;;21.90;51.20;;;;;;4917391;29;20032;-62
2021/10/27 08:50:10;;;;;;;3.22;1.15;;;21.90;51.30;;;;;;4912237;29;20110;-62
2021/10/27 08:52:36;;;;;;;2.97;1.45;;;21.90;51.30;;;;;;4912166;29;20376;-62
2021/10/27 08:55:03;;;;;;;5.78;1.17;;;21.90;51.30;;;;;;4914619;29;20032;-62
2021/10/27 08:57:29;;;;;;;2.88;1.17;;;21.90;51.40;;;;;;4913733;29;20048;-61
2021/10/27 09:00:03;;;;;;;3.22;1.20;;;22.00;51.40;;;;;;4912674;29;20066;-62
2021/10/27 09:02:52;;;;;;;3.50;1.50;;;22.00;51.40;;;;;;4913533;29;20052;-62
2021/10/27 09:06:22;;;;;;;3.67;1.30;;;22.00;51.20;;;;;;4906374;29;20072;-61
2021/10/27 09:34:37;;;;;;;3.10;1.27;;;22.00;51.20;;;;;;4920371;29;20083;-61
2021/10/27 09:39:57;;;;;;;2.10;0.93;;;22.00;51.30;;;;;;4899691;29;20036;-60
2021/10/27 10:05:14;;;;;;;4.07;0.85;;;22.00;51.20;;;;;;4916984;29;20051;-61
2021/10/27 10:07:41;;;;;;;3.55;0.68;;;22.00;51.30;;;;;;4897063;29;20024;-61
2021/10/27 10:10:09;;;;;;;4.53;0.90;;;22.10;51.30;;;;;;4896826;29;20115;-62
2021/10/27 10:12:38;;;;;;;3.35;1.33;;;22.10;51.40;;;;;;4916029;29;20099;-61
2021/10/27 10:15:05;;;;;;;6.20;1.13;;;22.20;51.10;;;;;;4912706;29;20050;-61
2021/10/27 10:17:37;;;;;;;2.97;1.30;;;22.20;51.20;;;;;;4900843;29;20444;-61
2021/10/27 10:20:05;;;;;;;4.18;1.10;;;22.10;51.50;;;;;;4898803;29;20123;-61
2021/10/27 10:22:36;;;;;;;3.00;1.15;;;22.10;51.20;;;;;;4914099;29;20027;-62
2021/10/27 10:25:14;;;;;;;4.22;1.08;;;22.10;51.20;;;;;;4912173;29;20079;-61
2021/10/27 10:27:41;;;;;;;3.20;1.20;;;22.20;51.20;;;;;;4899890;29;20080;-61
2021/10/27 10:30:35;;;;;;;2.53;1.10;;;22.20;51.20;;;;;;4905647;29;20483;-61
2021/10/27 10:33:05;;;;;;;2.50;1.00;;;22.20;51.20;;;;;;4908042;29;20028;-61
2021/10/27 10:41:29;;;;;;;3.58;0.98;;;22.20;51.30;;;;;;4916304;29;20040;-62
2021/10/27 11:25:42;;;;;;;4.22;1.25;;;22.90;50.10;;;;;;4911739;29;20036;-61
2021/10/27 11:42:20;;;;;;;2.67;0.80;;;23.00;50.30;;;;;;4904259;29;20044;-63
2021/10/27 11:44:50;;;;;;;3.22;1.00;;;22.90;50.30;;;;;;4913147;29;20373;-62
2021/10/27 11:47:43;;;;;;;2.47;1.00;;;22.90;50.30;;;;;;4903626;29;20038;-62
2021/10/27 11:50:16;;;;;;;2.13;0.60;;;22.90;50.40;;;;;;4900522;29;20029;-62
2021/10/27 11:52:43;;;;;;;2.28;0.93;;;22.90;50.50;;;;;;4910722;29;20086;-62
2021/10/27 11:55:12;;;;;;;2.03;0.80;;;22.80;50.60;;;;;;4907522;29;20036;-62
2021/10/27 11:57:39;;;;;;;2.70;1.00;;;22.80;50.60;;;;;;4907048;29;20032;-61
2021/10/27 12:00:08;;;;;;;2.65;0.50;;;22.80;50.70;;;;;;4906332;29;20080;-62
2021/10/27 12:05:33;;;;;;;3.42;0.90;;;22.80;50.70;;;;;;4912774;29;20111;-62
2021/10/27 12:08:17;;;;;;;1.67;0.52;;;22.80;50.80;;;;;;4902339;29;20123;-62
2021/10/27 12:10:56;;;;;;;3.08;1.13;;;22.70;50.90;;;;;;4900887;29;20638;-62
2021/10/27 12:13:49;;;;;;;1.90;0.90;;;22.80;51.00;;;;;;4908022;29;20080;-62
2021/10/27 12:19:14;;;;;;;5.45;0.93;;;22.70;50.90;;;;;;4884784;29;20553;-63
2021/10/27 12:21:48;;;;;;;2.53;0.90;;;22.70;51.00;;;;;;4914495;29;20386;-61
2021/10/27 12:24:19;;;;;;;3.05;1.02;;;22.60;51.10;;;;;;4914793;29;20096;-62
2021/10/27 12:26:57;;;;;;;2.03;0.73;;;22.70;51.20;;;;;;4913012;29;20122;-60
2021/10/27 12:29:26;;;;;;;2.03;0.80;;;22.60;51.30;;;;;;4913754;29;20048;-60
2021/10/27 12:32:11;;;;;;;3.17;0.90;;;22.60;51.40;;;;;;4914214;29;20633;-62
2021/10/27 12:34:50;;;;;;;4.60;1.20;;;22.60;51.40;;;;;;4915399;29;20035;-63
2021/10/27 12:37:55;;;;;;;2.15;0.90;;;22.60;51.30;;;;;;4915164;29;20123;-62
2021/10/27 12:40:25;;;;;;;1.58;0.50;;;22.60;51.40;;;;;;4913361;29;20130;-62
2021/10/27 12:43:06;;;;;;;4.28;1.00;;;22.50;51.50;;;;;;4914222;29;20024;-62
2021/10/27 12:45:48;;;;;;;1.95;0.75;;;22.50;51.50;;;;;;4915404;29;20047;-62
2021/10/27 12:48:17;;;;;;;2.78;1.10;;;22.50;51.50;;;;;;4914533;29;20024;-63
2021/10/27 12:51:00;;;;;;;2.72;1.33;;;22.50;51.50;;;;;;4913333;29;20043;-61
2021/10/27 12:53:40;;;;;;;2.10;0.85;;;22.50;51.60;;;;;;4911375;29;20024;-61
2021/10/27 12:56:16;;;;;;;2.42;0.90;;;22.50;51.50;;;;;;4914810;29;20028;-62
2021/10/27 12:58:46;;;;;;;1.30;0.50;;;22.50;51.60;;;;;;4913090;29;20036;-61
2021/10/27 13:01:19;;;;;;;0.73;0.40;;;22.50;51.50;;;;;;4922700;29;20379;-61
2021/10/27 13:17:06;;;;;;;2.03;0.80;;;22.50;51.60;;;;;;4916751;29;20107;-60
2021/10/27 13:30:12;;;;;;;3.00;0.80;;;22.40;51.70;;;;;;4918562;29;20104;-62
2021/10/27 13:32:45;;;;;;;2.22;0.80;;;22.30;51.80;;;;;;4907325;29;20100;-62
2021/10/27 13:35:11;;;;;;;1.05;0.60;;;22.30;51.80;;;;;;4918571;29;20032;-62
2021/10/27 13:37:36;;;;;;;1.90;0.90;;;22.30;51.70;;;;;;4917898;29;20102;-61
2021/10/27 13:40:04;;;;;;;2.33;0.88;;;22.40;51.70;;;;;;4913199;29;20374;-62
2021/10/27 13:58:54;;;;;;;2.10;0.90;;;22.40;51.70;;;;;;4904760;29;20027;-61
2021/10/27 14:06:54;;;;;;;3.08;1.02;;;22.40;51.80;;;;;;4916537;29;20098;-61
2021/10/27 14:11:57;;;;;;;2.63;0.98;;;22.30;51.90;;;;;;4913041;29;20075;-61
2021/10/27 14:41:33;;;;;;;1.52;0.60;;;22.40;51.80;;;;;;4896617;29;19915;-61
2021/10/27 15:22:10;;;;;;;2.42;1.10;;;22.10;51.90;;;;;;4912926;29;20025;-61
2021/10/27 15:27:49;;;;;;;3.28;0.80;;;22.20;51.90;;;;;;4878913;29;20119;-61
2021/10/27 15:30:31;;;;;;;3.65;0.73;;;22.10;51.90;;;;;;4898687;29;20035;-61
2021/10/27 15:36:09;;;;;;;1.33;0.70;;;22.10;51.90;;;;;;4876686;29;20040;-62
2021/10/27 15:41:32;;;;;;;;;;;22.10;51.90;;;;;;4898962;29;20097;-61
2021/10/27 15:52:12;;;;;;;2.38;1.00;;;22.10;51.90;;;;;;4898742;29;20068;-62
2021/10/27 15:54:38;;;;;;;2.10;0.70;;;22.10;51.90;;;;;;4898418;29;20033;-61
2021/10/27 15:57:03;;;;;;;2.85;0.98;;;22.10;51.90;;;;;;4912791;29;20085;-62
2021/10/27 15:59:30;;;;;;;1.77;0.70;;;22.10;51.90;;;;;;4898484;29;20029;-62
2021/10/27 16:01:56;;;;;;;2.10;0.80;;;22.10;51.90;;;;;;4898548;29;20433;-62
2021/10/27 16:04:22;;;;;;;1.48;0.80;;;22.10;51.90;;;;;;4898157;29;20027;-61
2021/10/27 16:06:52;;;;;;;1.58;0.77;;;22.10;51.90;;;;;;4898100;29;20032;-62
2021/10/27 16:09:19;;;;;;;3.25;1.10;;;22.10;51.90;;;;;;4898145;29;20049;-62
2021/10/27 16:11:45;;;;;;;1.95;0.70;;;22.10;51.90;;;;;;4898162;29;20024;-61
2021/10/27 16:14:12;;;;;;;2.58;0.75;;;22.00;51.90;;;;;;4898362;29;20089;-62
2021/10/27 16:16:37;;;;;;;2.60;1.05;;;22.10;51.90;;;;;;4897845;29;20032;-62
2021/10/27 16:19:03;;;;;;;3.22;1.00;;;22.10;51.90;;;;;;4898123;29;20025;-62
2021/10/27 16:21:30;;;;;;;1.88;0.77;;;22.10;51.80;;;;;;4897933;29;20116;-62
2021/10/27 16:23:57;;;;;;;2.03;0.80;;;22.00;51.90;;;;;;4898146;29;20029;-62
2021/10/27 16:26:23;;;;;;;2.15;0.75;;;22.10;51.90;;;;;;4897803;29;20088;-62
2021/10/27 16:28:49;;;;;;;3.38;1.08;;;22.00;51.90;;;;;;4897857;29;20037;-62
2021/10/27 16:31:15;;;;;;;3.50;1.60;;;22.10;51.90;;;;;;4898166;29;20036;-61
2021/10/27 16:33:44;;;;;;;2.45;0.85;;;22.00;51.90;;;;;;4897950;29;20029;-62
2021/10/27 16:36:11;;;;;;;2.15;0.90;;;22.10;51.90;;;;;;4897909;29;20020;-62
2021/10/27 16:38:38;;;;;;;2.88;0.90;;;22.00;51.90;;;;;;4897694;29;20052;-62
2021/10/27 16:41:03;;;;;;;2.25;0.88;;;22.00;51.90;;;;;;4897953;29;20032;-61
2021/10/27 16:43:29;;;;;;;3.20;1.05;;;22.00;51.90;;;;;;4897561;29;20087;-61
2021/10/27 16:45:55;;;;;;;2.92;0.80;;;22.10;51.90;;;;;;4897846;29;20048;-62
2021/10/27 16:48:20;;;;;;;1.45;0.80;;;22.00;51.90;;;;;;4897775;29;20451;-61
2021/10/27 16:50:46;;;;;;;2.40;0.95;;;22.00;51.90;;;;;;4897713;29;20032;-61
2021/10/27 16:53:12;;;;;;;2.65;0.95;;;22.00;51.90;;;;;;4897713;29;20108;-61
2021/10/27 16:55:38;;;;;;;1.83;0.63;;;22.00;51.90;;;;;;4897568;29;20423;-62
2021/10/27 16:58:04;;;;;;;2.00;0.85;;;22.00;51.80;;;;;;4897696;29;20017;-62
2021/10/27 17:00:31;;;;;;;2.53;0.98;;;22.00;51.80;;;;;;4897626;29;20494;-62
2021/10/27 17:02:57;;;;;;;4.10;1.30;;;22.00;51.80;;;;;;4897605;29;20536;-62
2021/10/27 17:05:23;;;;;;;2.60;1.10;;;22.00;51.80;;;;;;4897650;29;20032;-62
2021/10/27 17:07:49;;;;;;;2.45;0.70;;;22.00;51.80;;;;;;4897713;29;20088;-62
2021/10/27 17:10:16;;;;;;;3.20;0.88;;;22.00;51.80;;;;;;4897532;29;20380;-62
2021/10/27 17:12:42;;;;;;;3.08;1.15;;;22.00;51.90;;;;;;4897654;29;20052;-62
2021/10/27 17:15:12;;;;;;;2.65;1.10;;;22.00;51.80;;;;;;4897821;29;20077;-61
2021/10/27 17:17:38;;;;;;;2.88;1.15;;;22.00;51.80;;;;;;4897597;29;20025;-61
2021/10/27 17:20:05;;;;;;;2.00;1.05;;;22.00;51.80;;;;;;4897517;29;20068;-62
2021/10/27 17:22:36;;;;;;;3.00;0.70;;;22.00;51.80;;;;;;4897779;29;20064;-62
2021/10/27 17:25:02;;;;;;;3.53;1.00;;;22.00;51.80;;;;;;4897433;29;20025;-61
2021/10/27 17:27:28;;;;;;;2.13;0.93;;;22.00;51.80;;;;;;4897327;29;20036;-61
2021/10/27 17:29:54;;;;;;;1.83;0.88;;;22.00;51.80;;;;;;4897441;29;20029;-62
2021/10/27 17:32:19;;;;;;;1.98;0.80;;;22.00;51.80;;;;;;4897541;29;20036;-62
2021/10/27 17:34:45;;;;;;;4.43;1.08;;;22.00;51.80;;;;;;4897374;29;20027;-62
2021/10/27 17:37:13;;;;;;;1.77;0.60;;;22.00;51.80;;;;;;4897219;29;20041;-62
2021/10/27 17:39:41;;;;;;;2.35;0.80;;;22.00;51.80;;;;;;4897641;29;20384;-61
2021/10/27 17:42:09;;;;;;;2.40;0.70;;;22.00;51.80;;;;;;4897377;29;20489;-61
2021/10/27 17:44:34;;;;;;;3.05;1.10;;;22.00;51.80;;;;;;4900462;29;20065;-62
2021/10/27 17:47:04;;;;;;;1.83;0.90;;;22.00;51.80;;;;;;4901075;29;20036;-62
2021/10/27 17:52:26;;;;;;;2.17;0.98;;;22.00;51.80;;;;;;4900932;29;20032;-63
2021/10/27 17:58:23;;;;;;;2.70;0.80;;;22.00;51.80;;;;;;4900830;29;20265;-62
2021/10/27 18:00:36;;;;;;;5.93;1.10;;;22.00;51.80;;;;;;4910600;29;20028;-62
2021/10/27 18:03:02;;;;;;;2.42;1.00;;;22.00;51.80;;;;;;4900401;29;20024;-62
2021/10/27 18:05:28;;;;;;;2.00;0.95;;;22.00;51.80;;;;;;4898802;29;20037;-62
2021/10/27 18:07:53;;;;;;;3.08;0.95;;;22.00;51.90;;;;;;4900208;29;20387;-62
2021/10/27 18:10:22;;;;;;;1.63;0.70;;;22.00;51.80;;;;;;4900204;29;20113;-62
2021/10/27 18:12:48;;;;;;;2.45;1.10;;;22.00;51.80;;;;;;4900067;29;20392;-62
2021/10/27 18:15:16;;;;;;;2.35;1.00;;;22.00;51.80;;;;;;4900182;29;20116;-61
2021/10/27 18:17:42;;;;;;;1.70;0.63;;;22.00;51.80;;;;;;4900143;29;20060;-61
2021/10/27 18:20:26;;;;;;;1.20;0.65;;;22.00;51.80;;;;;;4899992;29;20115;-61
2021/10/27 18:23:08;;;;;;;2.03;0.90;;;22.00;51.80;;;;;;4900074;29;20029;-61
2021/10/27 18:25:52;;;;;;;1.60;0.73;;;22.00;51.80;;;;;;4899932;29;20048;-62
2021/10/27 18:28:32;;;;;;;2.80;1.02;;;22.00;51.80;;;;;;4899822;29;20496;-62
2021/10/27 18:36:33;;;;;;;2.45;1.00;;;22.00;51.80;;;;;;4900006;29;20092;-62
2021/10/27 18:39:16;;;;;;;2.08;0.70;;;22.00;51.80;;;;;;4899746;29;20063;-63
2021/10/27 18:41:51;;;;;;;2.38;0.80;;;22.00;51.80;;;;;;4899884;29;20040;-61
2021/10/27 18:44:18;;;;;;;2.58;0.98;;;22.00;51.80;;;;;;4899968;29;20439;-60
2021/10/27 18:46:47;;;;;;;3.08;1.08;;;22.00;51.80;;;;;;4899908;29;20047;-62
2021/10/27 18:49:15;;;;;;;2.92;1.00;;;22.00;51.80;;;;;;4899738;29;20052;-61
2021/10/27 18:51:50;;;;;;;2.25;0.85;;;22.00;51.80;;;;;;4899581;29;20473;-62
2021/10/27 18:54:35;;;;;;;3.40;0.93;;;22.00;51.80;;;;;;4898563;29;20063;-62
2021/10/27 18:59:53;;;;;;;3.10;1.02;;;22.00;51.80;;;;;;4913363;29;20033;-62
2021/10/27 19:02:22;;;;;;;2.28;1.00;;;22.00;51.80;;;;;;4899638;29;20028;-62
2021/10/27 19:11:20;;;;;;;1.20;0.68;;;22.00;51.70;;;;;;4899532;29;20039;-62
2021/10/27 19:15:44;;;;;;;3.10;1.00;;;21.90;51.70;;;;;;4899310;29;20024;-62
2021/10/27 19:18:11;;;;;;;5.00;1.17;;;21.90;51.70;;;;;;4899075;29;20535;-62
2021/10/27 19:20:37;;;;;;;2.97;1.15;;;22.00;51.70;;;;;;4899074;29;20024;-62
2021/10/27 19:23:02;;;;;;;2.65;1.00;;;21.90;51.80;;;;;;4899125;29;20525;-62
2021/10/27 19:33:04;;;;;;;1.50;0.80;;;21.90;51.70;;;;;;4899009;29;20037;-62
2021/10/27 20:19:20;;;;;;;2.15;0.90;;;21.90;51.70;;;;;;4898436;29;20178;-61
2021/10/27 20:27:30;;;;;;;2.15;0.80;;;21.80;51.70;;;;;;4898202;29;20044;-62
2021/10/27 20:30:15;;;;;;;;;;;21.80;51.70;;;;;;4898727;29;20029;-61
2021/10/27 20:52:06;;;;;;;2.78;0.80;;;21.70;51.80;;;;;;4897768;29;20029;-62
2021/10/27 20:54:17;;;;;;;2.67;1.02;;;21.70;51.80;;;;;;4897332;29;20075;-61
2021/10/27 20:56:48;;;;;;;2.38;0.90;;;21.70;51.80;;;;;;4897742;29;20029;-61
2021/10/27 20:59:22;;;;;;;1.58;0.68;;;21.60;51.90;;;;;;4898261;29;20039;-61
2021/10/27 21:02:19;;;;;;;1.90;0.65;;;21.60;51.80;;;;;;4898040;29;20104;-61
2021/10/27 21:12:12;;;;;;;3.38;0.93;;;21.60;51.90;;;;;;4897495;29;20052;-62
2021/10/27 21:13:02;;;;;;;3.25;1.08;;;21.70;51.80;;;;;;4897984;29;20491;-61
2021/10/27 21:15:27;;;;;;;3.60;1.02;;;21.60;51.80;;;;;;4897541;29;20033;-62
2021/10/27 21:17:54;;;;;;;2.63;1.00;;;21.60;51.80;;;;;;4897056;29;20016;-61
2021/10/27 21:20:20;;;;;;;1.67;0.80;;;21.60;51.80;;;;;;4901382;29;20040;-62
2021/10/27 21:22:45;;;;;;;2.72;1.20;;;21.60;51.80;;;;;;4916025;29;20036;-62
2021/10/27 21:25:13;;;;;;;4.72;1.20;;;21.60;51.80;;;;;;4901145;29;20033;-62
2021/10/27 21:27:48;;;;;;;2.45;1.00;;;21.60;51.70;;;;;;4901129;29;20512;-62
2021/10/27 21:33:08;;;;;;;2.70;1.02;;;21.60;51.80;;;;;;4901410;29;20035;-63
2021/10/27 21:43:48;;;;;;;2.35;0.82;;;21.50;51.80;;;;;;4901121;29;20035;-62
2021/10/27 21:46:14;;;;;;;2.88;1.00;;;21.50;51.80;;;;;;4900729;29;20041;-61
2021/10/27 21:48:39;;;;;;;1.95;0.88;;;21.50;51.80;;;;;;4900933;29;20029;-61
2021/10/27 21:51:05;;;;;;;1.88;0.77;;;21.50;51.80;;;;;;4900758;29;20032;-61
2021/10/27 21:53:30;;;;;;;2.35;0.85;;;21.50;51.80;;;;;;4900568;29;20028;-62
2021/10/27 21:56:00;;;;;;;3.72;0.90;;;21.50;51.80;;;;;;4900637;29;20060;-62
2021/10/27 21:58:27;;;;;;;2.65;1.00;;;21.50;51.80;;;;;;4900701;29;20025;-62
2021/10/27 22:00:56;;;;;;;4.13;0.88;;;21.50;51.80;;;;;;4900666;29;20028;-62
2021/10/27 22:03:24;;;;;;;2.47;0.95;;;21.50;51.80;;;;;;4900770;29;20099;-62
2021/10/27 22:05:51;;;;;;;4.18;1.15;;;21.50;51.80;;;;;;4900373;29;20396;-61
2021/10/27 22:08:17;;;;;;;2.35;1.00;;;21.50;51.80;;;;;;4899168;29;20025;-61
2021/10/27 22:10:42;;;;;;;3.80;1.15;;;21.50;51.80;;;;;;4899145;29;20101;-61
2021/10/27 22:13:08;;;;;;;3.17;1.40;;;21.50;51.80;;;;;;4900604;29;20110;-62
2021/10/27 22:15:34;;;;;;;2.35;1.00;;;21.50;51.80;;;;;;4900593;29;20437;-62
2021/10/27 22:18:00;;;;;;;3.33;1.17;;;21.50;51.80;;;;;;4900196;29;20025;-62
2021/10/27 22:20:26;;;;;;;2.05;0.82;;;21.50;51.80;;;;;;4900179;29;20471;-62
2021/10/27 22:22:53;;;;;;;2.53;0.95;;;21.50;51.80;;;;;;4900115;29;20472;-61
2021/10/27 22:25:20;;;;;;;2.63;1.25;;;21.50;51.80;;;;;;4900212;29;20437;-61
2021/10/27 22:27:46;;;;;;;1.83;0.80;;;21.40;51.80;;;;;;4900219;29;20032;-62
2021/10/27 22:30:12;;;;;;;1.67;0.77;;;21.40;51.80;;;;;;4900183;29;20160;-62
2021/10/27 22:32:37;;;;;;;2.95;0.90;;;21.50;51.80;;;;;;4900091;29;20063;-62
2021/10/27 22:35:04;;;;;;;3.47;1.02;;;21.40;51.80;;;;;;4899900;29;20024;-62
2021/10/27 22:37:30;;;;;;;1.67;0.77;;;21.40;51.80;;;;;;4898553;29;20040;-61
2021/10/27 22:39:56;;;;;;;2.83;0.90;;;21.40;51.70;;;;;;4899911;29;20115;-62
2021/10/27 22:42:21;;;;;;;1.95;0.82;;;21.40;51.80;;;;;;4899816;29;20120;-62
2021/10/27 22:44:47;;;;;;;2.45;0.95;;;21.40;51.80;;;;;;4899789;29;20552;-61
2021/10/27 22:47:13;;;;;;;3.63;0.90;;;21.40;51.80;;;;;;4914174;29;20036;-62
2021/10/27 22:49:42;;;;;;;4.65;1.33;;;21.40;51.80;;;;;;4899691;29;20077;-62
2021/10/27 22:52:08;;;;;;;2.42;0.77;;;21.40;51.70;;;;;;4899598;29;20028;-62
2021/10/27 22:54:34;;;;;;;2.75;1.00;;;21.40;51.70;;;;;;4899642;29;20031;-61
2021/10/27 22:56:59;;;;;;;2.42;1.00;;;21.40;51.70;;;;;;4899667;29;20391;-62
2021/10/27 23:07:25;;;;;;;2.53;0.80;;;21.40;51.70;;;;;;4899639;29;20044;-61
2021/10/27 23:10:01;;;;;;;1.67;0.85;;;21.30;51.70;;;;;;4899476;29;20116;-61
2021/10/27 23:42:27;;;;;;;1.58;0.98;;;21.20;51.70;;;;;;4898709;29;20040;-61
2021/10/27 23:47:19;;;;;;;2.25;0.90;;;21.30;51.70;;;;;;4898718;29;20060;-61
2021/10/27 23:49:47;;;;;;;2.75;1.10;;;21.20;51.70;;;;;;4898898;29;20025;-61
2021/10/27 23:52:18;;;;;;;2.42;0.82;;;21.30;51.70;;;;;;4898457;29;20624;-61
2021/10/27 23:54:50;;;;;;;3.05;1.15;;;21.30;51.60;;;;;;4898702;29;20037;-61
2021/10/27 23:57:37;;;;;;;1.90;0.98;;;21.30;51.60;;;;;;4898798;29;20036;-61
